createdAt,value
2019-04-11T00:00:31.341Z,14.25
2019-04-11T00:03:00.840Z,13.23
2019-04-11T00:05:30.711Z,12.97
2019-04-11T00:08:00.205Z,14.07
2019-04-11T00:10:29.904Z,16.13
2019-04-11T00:13:01.117Z,14.63
2019-04-11T00:15:30.715Z,15.00
2019-04-11T00:18:00.685Z,17.47
2019-04-11T00:20:29.746Z,16.57
2019-04-11T00:22:59.700Z,16.73
2019-04-11T00:25:28.760Z,17.77
2019-04-11T00:27:57.651Z,18.10
2019-04-11T00:30:26.548Z,18.85
2019-04-11T00:32:56.044Z,19.20
2019-04-11T00:35:25.915Z,18.93
2019-04-11T00:37:54.852Z,19.23
2019-04-11T00:40:24.802Z,19.48
2019-04-11T00:42:54.730Z,19.47
2019-04-11T00:45:23.782Z,19.07
2019-04-11T00:47:53.227Z,19.77
2019-04-11T00:50:23.197Z,21.15
2019-04-11T00:52:53.831Z,19.97
2019-04-11T00:55:23.760Z,19.00
2019-04-11T00:57:53.074Z,20.67
2019-04-11T01:00:22.865Z,21.17
2019-04-11T01:02:51.859Z,21.10
2019-04-11T01:05:21.394Z,21.45
2019-04-11T01:07:51.274Z,21.03
2019-04-11T01:10:20.437Z,15.70
2019-04-11T01:12:49.904Z,11.47
2019-04-11T01:15:21.631Z,11.07
2019-04-11T01:17:51.680Z,8.87
2019-04-11T01:20:21.578Z,9.87
2019-04-11T01:22:50.824Z,11.63
2019-04-11T01:25:20.148Z,11.13
2019-04-11T01:27:50.019Z,14.57
2019-04-11T01:30:22.848Z,16.67
2019-04-11T01:32:52.717Z,18.53
2019-04-11T01:35:21.775Z,18.10
2019-04-11T01:37:50.771Z,19.03
2019-04-11T01:40:19.661Z,18.87
2019-04-11T01:42:49.249Z,19.90
2019-04-11T01:45:21.163Z,18.97
2019-04-11T01:48:07.504Z,17.97
2019-04-11T01:50:38.059Z,18.47
2019-04-11T01:53:08.850Z,20.67
2019-04-11T01:55:38.769Z,18.87
2019-04-11T01:58:08.694Z,19.93
2019-04-11T02:00:42.117Z,18.27
2019-04-11T02:03:15.562Z,18.07
2019-04-11T02:05:45.341Z,18.97
2019-04-11T02:08:15.321Z,19.35
2019-04-11T02:10:45.288Z,18.70
2019-04-11T02:13:15.208Z,17.23
2019-04-11T02:15:44.384Z,15.23
2019-04-11T02:18:13.271Z,12.07
2019-04-11T02:20:42.165Z,11.00
2019-04-11T02:23:26.775Z,9.23
2019-04-11T02:26:00.846Z,8.57
2019-04-11T02:28:30.922Z,8.07
2019-04-11T02:31:00.225Z,8.10
2019-04-11T02:33:30.527Z,7.97
2019-04-11T02:36:00.886Z,7.87
2019-04-11T02:38:30.513Z,7.25
2019-04-11T02:41:01.181Z,7.83
2019-04-11T02:43:31.813Z,8.30
2019-04-11T02:46:13.053Z,10.00
2019-04-11T02:48:33.042Z,10.40
2019-04-11T02:51:02.985Z,11.60
2019-04-11T02:53:34.362Z,11.33
2019-04-11T02:56:05.983Z,13.57
2019-04-11T02:58:36.689Z,12.67
2019-04-11T03:01:07.482Z,12.43
2019-04-11T03:03:37.377Z,12.40
2019-04-11T03:06:07.233Z,11.53
2019-04-11T03:08:38.790Z,10.70
2019-04-11T03:11:10.624Z,11.85
2019-04-11T03:13:40.084Z,12.33
2019-04-11T03:16:24.988Z,13.17
2019-04-11T03:18:59.285Z,12.80
2019-04-11T03:21:17.969Z,12.95
2019-04-11T03:23:44.029Z,11.83
2019-04-11T03:26:14.081Z,12.35
2019-04-11T03:28:47.479Z,13.17
2019-04-11T03:31:50.599Z,14.03
2019-04-11T03:39:11.802Z,13.50
2019-04-11T03:41:36.027Z,17.27
2019-04-11T03:43:59.321Z,18.63
2019-04-11T03:46:38.094Z,18.15
2019-04-11T03:49:01.223Z,16.30
2019-04-11T03:51:22.758Z,16.80
2019-04-11T03:53:53.428Z,15.13
2019-04-11T03:56:24.227Z,15.78
2019-04-11T03:58:55.333Z,14.80
2019-04-11T04:01:26.309Z,15.65
2019-04-11T04:03:55.786Z,16.53
2019-04-11T04:06:25.590Z,17.05
2019-04-11T04:08:55.495Z,18.53
2019-04-11T04:11:27.446Z,20.57
2019-04-11T04:13:59.897Z,18.10
2019-04-11T04:16:50.495Z,17.53
2019-04-11T04:19:35.538Z,10.50
2019-04-11T04:22:15.964Z,8.90
2019-04-11T04:24:47.710Z,7.80
2019-04-11T04:27:17.471Z,8.25
2019-04-11T04:29:49.643Z,11.40
2019-04-11T04:32:18.534Z,10.87
2019-04-11T04:34:50.591Z,11.50
2019-04-11T04:37:21.429Z,11.93
2019-04-11T04:40:12.256Z,15.60
2019-04-11T04:42:27.235Z,12.33
2019-04-11T04:44:51.679Z,10.07
2019-04-11T04:47:24.874Z,14.27
2019-04-11T04:49:52.228Z,10.87
2019-04-11T04:52:21.463Z,9.10
2019-04-11T04:54:50.414Z,6.50
2019-04-11T04:57:21.855Z,10.90
2019-04-11T04:59:50.757Z,9.63
2019-04-11T05:02:20.577Z,9.13
2019-04-11T05:04:49.779Z,9.20
2019-04-11T05:07:19.390Z,7.40
2019-04-11T05:09:50.175Z,6.03
2019-04-11T05:12:20.522Z,6.47
2019-04-11T05:14:49.982Z,5.92
2019-04-11T05:17:19.356Z,5.80
2019-04-11T05:19:48.759Z,13.30
2019-04-11T05:22:18.934Z,14.20
2019-04-11T05:24:48.064Z,14.77
2019-04-11T05:27:17.546Z,8.03
2019-04-11T05:29:46.356Z,9.27
2019-04-11T05:32:15.460Z,8.08
2019-04-11T05:34:45.617Z,8.53
2019-04-11T05:37:15.309Z,8.30
2019-04-11T05:39:44.968Z,8.60
2019-04-11T05:42:17.763Z,11.38
2019-04-11T05:44:45.152Z,11.37
2019-04-11T05:47:18.144Z,12.75
2019-04-11T05:49:46.665Z,13.20
2019-04-11T05:52:15.780Z,12.78
2019-04-11T05:54:47.997Z,12.17
2019-04-11T05:57:22.073Z,10.57
2019-04-11T05:59:49.943Z,13.40
2019-04-11T06:02:24.824Z,13.85
2019-04-11T06:05:02.729Z,11.77
2019-04-11T06:07:40.030Z,10.60
2019-04-11T06:10:12.624Z,8.47
2019-04-11T06:12:58.999Z,8.50
2019-04-11T06:15:33.273Z,8.20
2019-04-11T06:18:04.862Z,8.47
2019-04-11T06:20:45.218Z,7.47
2019-04-11T06:23:25.456Z,8.20
2019-04-11T06:26:06.690Z,9.20
2019-04-11T06:28:36.160Z,10.50
2019-04-11T06:31:18.726Z,11.70
2019-04-11T06:33:49.172Z,12.80
2019-04-11T06:36:23.261Z,14.47
2019-04-11T06:38:54.692Z,14.33
2019-04-11T06:41:26.270Z,10.80
2019-04-11T06:43:56.812Z,14.43
2019-04-11T06:46:31.317Z,14.63
2019-04-11T06:49:16.612Z,18.70
2019-04-11T06:51:50.478Z,29.50
2019-04-11T06:54:23.613Z,33.37
2019-04-11T06:56:53.842Z,35.73
2019-04-11T06:59:28.095Z,37.97
2019-04-11T07:02:08.013Z,37.10
2019-04-11T07:04:33.925Z,39.43
2019-04-11T07:07:04.509Z,37.00
2019-04-11T07:09:41.426Z,37.90
2019-04-11T07:12:13.388Z,37.30
2019-04-11T07:14:53.042Z,38.10
2019-04-11T07:17:40.444Z,39.42
2019-04-11T07:20:16.547Z,39.05
2019-04-11T07:23:03.745Z,40.07
2019-04-11T07:25:43.693Z,38.93
2019-04-11T07:28:14.476Z,40.00
2019-04-11T07:31:02.392Z,40.97
2019-04-11T07:33:33.316Z,39.73
2019-04-11T07:36:21.020Z,38.10
2019-04-11T07:39:07.824Z,39.97
2019-04-11T07:41:39.247Z,38.87
2019-04-11T07:44:11.005Z,39.80
2019-04-11T07:46:58.248Z,39.70
2019-04-11T07:49:44.987Z,38.70
2019-04-11T07:52:15.771Z,38.92
2019-04-11T07:54:45.634Z,37.67
2019-04-11T07:57:26.344Z,39.10
2019-04-11T08:00:12.720Z,38.63
2019-04-11T08:03:01.975Z,39.37
2019-04-11T08:05:32.608Z,39.60
2019-04-11T08:08:06.847Z,37.50
2019-04-11T08:10:44.232Z,37.10
2019-04-11T08:13:23.861Z,38.37
2019-04-11T08:16:10.607Z,39.10
2019-04-11T08:18:57.787Z,37.67
2019-04-11T08:21:44.291Z,35.23
2019-04-11T08:24:30.132Z,36.85
2019-04-11T08:27:00.921Z,37.63
2019-04-11T08:29:30.555Z,39.43
2019-04-11T08:32:09.926Z,37.83
2019-04-11T08:34:43.719Z,39.60
2019-04-11T08:37:23.315Z,41.00
2019-04-11T08:39:53.395Z,41.37
2019-04-11T08:42:40.797Z,43.40
2019-04-11T08:45:12.665Z,43.10
2019-04-11T08:47:47.703Z,43.80
2019-04-11T08:50:16.396Z,43.65
2019-04-11T08:52:50.043Z,43.30
2019-04-11T08:55:21.044Z,44.03
2019-04-11T08:57:51.924Z,43.33
2019-04-11T09:00:33.064Z,43.90
2019-04-11T09:03:09.670Z,44.30
2019-04-11T09:05:40.863Z,44.50
2019-04-11T09:08:12.575Z,43.30
2019-04-11T09:11:00.121Z,43.40
2019-04-11T09:13:31.318Z,43.57
2019-04-11T09:16:18.329Z,45.27
2019-04-11T09:18:47.870Z,44.43
2019-04-11T09:21:34.575Z,45.63
2019-04-11T09:24:06.124Z,44.63
2019-04-11T09:26:52.941Z,44.53
2019-04-11T09:29:24.087Z,44.93
2019-04-11T09:32:09.804Z,44.40
2019-04-11T09:34:44.078Z,44.03
2019-04-11T09:37:16.824Z,44.40
2019-04-11T09:39:51.033Z,44.47
2019-04-11T09:42:23.001Z,46.87
2019-04-11T09:44:57.222Z,46.73
2019-04-11T09:47:46.131Z,42.00
2019-04-11T09:50:16.658Z,43.13
2019-04-11T09:52:47.423Z,41.47
2019-04-11T09:55:23.760Z,41.07
2019-04-11T09:57:54.644Z,39.50
2019-04-11T10:00:32.497Z,41.13
2019-04-11T10:03:02.975Z,39.90
2019-04-11T10:05:36.422Z,39.70
2019-04-11T10:08:10.666Z,39.33
2019-04-11T10:10:57.545Z,38.60
2019-04-11T10:13:31.108Z,38.45
2019-04-11T10:16:11.548Z,37.10
2019-04-11T10:18:51.567Z,37.60
2019-04-11T10:21:23.024Z,38.08
2019-04-11T10:24:01.032Z,36.50
2019-04-11T10:26:31.979Z,35.83
2019-04-11T10:29:14.913Z,34.33
2019-04-11T10:31:48.528Z,35.77
2019-04-11T10:34:21.778Z,34.50
2019-04-11T10:36:52.203Z,33.80
2019-04-11T10:39:22.771Z,34.43
2019-04-11T10:41:53.817Z,33.93
2019-04-11T10:44:27.018Z,32.53
2019-04-11T10:47:10.041Z,33.27
2019-04-11T10:49:50.656Z,33.80
2019-04-11T10:52:27.025Z,34.17
2019-04-11T10:55:15.671Z,34.53
2019-04-11T10:57:48.764Z,34.40
2019-04-11T11:00:23.003Z,33.28
2019-04-11T11:03:11.898Z,32.57
2019-04-11T11:05:45.353Z,35.53
2019-04-11T11:08:19.475Z,32.03
2019-04-11T11:10:52.130Z,33.53
2019-04-11T11:13:25.655Z,31.77
2019-04-11T11:15:56.037Z,32.45
2019-04-11T11:19:06.002Z,34.73
2019-04-11T11:21:11.314Z,33.02
2019-04-11T11:23:42.833Z,33.40
2019-04-11T11:26:14.509Z,33.65
2019-04-11T11:28:45.094Z,33.53
2019-04-11T11:31:22.383Z,32.65
2019-04-11T11:33:51.786Z,32.93
2019-04-11T11:36:23.426Z,32.30
2019-04-11T11:39:13.057Z,30.90
2019-04-11T11:41:44.586Z,32.57
2019-04-11T11:44:13.871Z,32.10
2019-04-11T11:46:44.673Z,31.37
2019-04-11T11:49:14.273Z,30.80
2019-04-11T11:52:03.996Z,31.70
2019-04-11T11:54:37.795Z,32.43
2019-04-11T11:57:08.682Z,31.33
2019-04-11T11:59:45.181Z,32.67
2019-04-11T12:02:21.113Z,34.55
2019-04-11T12:04:56.203Z,33.63
2019-04-11T12:07:42.994Z,31.23
2019-04-11T12:10:23.965Z,31.30
2019-04-11T12:13:08.136Z,31.33
2019-04-11T12:15:45.503Z,32.07
2019-04-11T12:18:20.371Z,31.45
2019-04-11T12:20:59.218Z,30.53
2019-04-11T12:23:44.775Z,31.57
2019-04-11T12:26:05.377Z,32.77
2019-04-11T12:28:54.291Z,31.90
2019-04-11T12:31:28.701Z,30.32
2019-04-11T12:34:02.293Z,27.50
2019-04-11T12:36:46.580Z,27.27
2019-04-11T12:39:28.679Z,27.82
2019-04-11T12:41:58.408Z,27.70
2019-04-11T12:44:31.805Z,27.30
2019-04-11T12:47:07.594Z,27.37
2019-04-11T12:49:52.471Z,28.50
2019-04-11T12:52:31.656Z,29.65
2019-04-11T12:55:02.096Z,28.07
2019-04-11T12:57:48.894Z,27.33
2019-04-11T13:00:19.749Z,28.45
2019-04-11T13:03:02.555Z,27.07
2019-04-11T13:05:45.475Z,28.30
2019-04-11T13:08:19.075Z,27.60
2019-04-11T13:10:48.276Z,27.33
2019-04-11T13:13:37.237Z,28.73
2019-04-11T13:16:12.485Z,27.57
2019-04-11T13:18:58.873Z,25.90
2019-04-11T13:21:32.001Z,27.15
2019-04-11T13:24:02.416Z,26.77
2019-04-11T13:26:49.510Z,25.83
2019-04-11T13:29:29.051Z,24.37
2019-04-11T13:32:17.499Z,27.80
2019-04-11T13:34:47.933Z,26.00
2019-04-11T13:37:18.352Z,24.73
2019-04-11T13:39:48.782Z,24.03
2019-04-11T13:42:35.601Z,25.50
2019-04-11T13:45:06.224Z,26.97
2019-04-11T13:47:52.857Z,25.77
2019-04-11T13:50:23.259Z,26.43
2019-04-11T13:53:09.829Z,26.30
2019-04-11T13:55:38.755Z,27.87
2019-04-11T13:58:15.441Z,26.67
2019-04-11T14:00:45.960Z,27.40
2019-04-11T14:03:34.612Z,28.30
2019-04-11T14:06:05.043Z,28.57
2019-04-11T14:08:47.450Z,29.07
2019-04-11T14:11:17.879Z,29.40
2019-04-11T14:13:46.778Z,27.73
2019-04-11T14:16:19.960Z,26.12
2019-04-11T14:18:56.326Z,27.20
2019-04-11T14:21:32.691Z,26.47
2019-04-11T14:24:12.200Z,25.53
2019-04-11T14:26:48.499Z,26.43
2019-04-11T14:29:34.284Z,26.57
2019-04-11T14:32:04.714Z,26.33
2019-04-11T14:34:40.853Z,24.90
2019-04-11T14:37:37.811Z,27.55
2019-04-11T14:40:11.410Z,26.10
2019-04-11T14:42:50.861Z,26.60
2019-04-11T14:45:24.467Z,26.27
2019-04-11T14:47:54.893Z,25.73
2019-04-11T14:50:25.113Z,25.27
2019-04-11T14:52:58.409Z,26.47
2019-04-11T14:55:28.528Z,26.57
2019-04-11T14:57:58.954Z,26.57
2019-04-11T15:00:29.586Z,26.67
2019-04-11T15:03:18.243Z,25.20
2019-04-11T15:05:48.679Z,28.03
2019-04-11T15:08:28.210Z,28.40
2019-04-11T15:10:58.637Z,27.90
2019-04-11T15:13:29.066Z,29.83
2019-04-11T15:16:14.503Z,30.00
2019-04-11T15:18:44.973Z,29.80
2019-04-11T15:21:18.367Z,32.27
2019-04-11T15:23:47.337Z,29.90
2019-04-11T15:26:26.906Z,30.97
2019-04-11T15:28:57.329Z,30.70
2019-04-11T15:31:39.932Z,32.37
2019-04-11T15:34:19.598Z,32.23
2019-04-11T15:36:50.114Z,30.60
2019-04-11T15:39:44.366Z,30.97
2019-04-11T15:42:10.172Z,30.87
2019-04-11T15:44:46.471Z,30.37
2019-04-11T15:47:19.008Z,31.85
2019-04-11T15:50:04.951Z,29.90
2019-04-11T15:52:34.701Z,31.30
2019-04-11T15:55:23.419Z,30.27
2019-04-11T15:57:52.618Z,29.13
2019-04-11T16:00:23.153Z,29.80
2019-04-11T16:02:56.548Z,31.47
2019-04-11T16:05:45.516Z,30.10
2019-04-11T16:08:31.089Z,30.85
2019-04-11T16:11:04.229Z,30.83
2019-04-11T16:13:43.619Z,30.73
2019-04-11T16:16:12.810Z,30.62
2019-04-11T16:22:05.384Z,29.67
2019-04-11T16:24:38.987Z,29.83
2019-04-11T16:27:16.168Z,30.93
2019-04-11T16:29:59.092Z,30.27
2019-04-11T16:32:29.521Z,29.87
2019-04-11T16:35:09.142Z,30.93
2019-04-11T16:37:38.665Z,29.10
2019-04-11T16:40:14.816Z,29.13
2019-04-11T16:42:44.620Z,31.40
2019-04-11T16:45:31.862Z,30.27
2019-04-11T16:48:02.622Z,30.10
2019-04-11T16:50:31.694Z,29.23
2019-04-11T16:53:00.700Z,29.37
2019-04-11T16:55:29.588Z,29.47
2019-04-11T16:57:58.470Z,30.20
2019-04-11T17:00:27.468Z,29.12
2019-04-11T17:02:56.458Z,29.80
2019-04-11T17:05:26.797Z,31.07
2019-04-11T17:08:06.219Z,31.83
2019-04-11T17:10:56.571Z,31.67
2019-04-11T17:13:25.800Z,30.60
2019-04-11T17:15:54.399Z,29.30
2019-04-11T17:18:23.289Z,32.63
2019-04-11T17:20:52.284Z,31.47
2019-04-11T17:23:21.173Z,31.50
2019-04-11T17:25:52.910Z,32.30
2019-04-11T17:28:23.087Z,32.78
2019-04-11T17:30:54.784Z,30.57
2019-04-11T17:33:25.527Z,30.90
2019-04-11T17:35:53.821Z,31.43
2019-04-11T17:38:22.715Z,32.80
2019-04-11T17:40:51.706Z,32.43
2019-04-11T17:43:20.599Z,32.67
2019-04-11T17:45:49.489Z,33.70
2019-04-11T17:48:19.760Z,31.83
2019-04-11T17:50:48.604Z,31.10
2019-04-11T17:53:17.491Z,33.73
2019-04-11T17:55:46.390Z,31.43
2019-04-11T17:58:15.273Z,32.58
2019-04-11T18:00:45.702Z,31.67
2019-04-11T18:03:14.595Z,32.67
2019-04-11T18:05:46.615Z,30.57
2019-04-11T18:08:14.320Z,31.33
2019-04-11T18:10:43.214Z,31.93
2019-04-11T18:13:12.411Z,31.27
2019-04-11T18:15:41.403Z,31.13
2019-04-11T18:18:10.602Z,31.62
2019-04-11T18:20:39.596Z,29.93
2019-04-11T18:23:09.102Z,32.33
2019-04-11T18:25:38.094Z,32.73
2019-04-11T18:28:07.557Z,31.07
2019-04-11T18:30:36.491Z,30.60
2019-04-11T18:33:05.503Z,31.97
2019-04-11T18:35:34.583Z,31.07
2019-04-11T18:38:03.472Z,31.47
2019-04-11T18:40:32.465Z,32.87
2019-04-11T18:43:01.473Z,32.00
2019-04-11T18:45:30.350Z,32.80
2019-04-11T18:47:59.360Z,32.47
2019-04-11T18:50:28.922Z,33.73
2019-04-11T18:52:59.516Z,34.97
2019-04-11T18:55:28.577Z,31.87
2019-04-11T18:57:57.474Z,33.43
2019-04-11T19:00:26.802Z,31.90
2019-04-11T19:02:55.999Z,33.90
2019-04-11T19:05:29.060Z,33.10
2019-04-11T19:07:55.640Z,33.43
2019-04-11T19:10:24.488Z,31.82
2019-04-11T19:12:55.345Z,31.87
2019-04-11T19:15:25.444Z,31.93
2019-04-11T19:18:05.784Z,32.23
2019-04-11T19:20:24.964Z,34.50
2019-04-11T19:22:53.855Z,33.00
2019-04-11T19:25:22.851Z,34.27
2019-04-11T19:27:54.197Z,32.80
2019-04-11T19:30:23.951Z,32.20
2019-04-11T19:32:53.169Z,34.43
2019-04-11T19:35:22.107Z,32.47
2019-04-11T19:37:50.998Z,34.70
2019-04-11T19:40:19.883Z,33.37
2019-04-11T19:42:49.764Z,34.93
2019-04-11T19:45:20.298Z,33.53
2019-04-11T19:47:51.839Z,34.20
2019-04-11T19:50:19.969Z,33.10
2019-04-11T19:52:48.848Z,34.23
2019-04-11T19:55:19.373Z,35.73
2019-04-11T19:57:48.272Z,35.87
2019-04-11T20:00:21.585Z,34.10
2019-04-11T20:02:51.784Z,33.95
2019-04-11T20:05:21.604Z,35.98
2019-04-11T20:07:50.490Z,35.60
2019-04-11T20:10:19.378Z,34.23
2019-04-11T20:12:48.270Z,35.10
2019-04-11T20:15:17.162Z,33.17
2019-04-11T20:17:51.135Z,35.20
2019-04-11T20:20:16.785Z,34.25
2019-04-11T20:22:57.951Z,36.57
2019-04-11T20:25:16.843Z,35.03
2019-04-11T20:27:48.128Z,33.13
2019-04-11T20:30:16.736Z,35.25
2019-04-11T20:32:45.646Z,34.57
2019-04-11T20:35:14.593Z,34.83
2019-04-11T20:37:44.687Z,36.00
2019-04-11T20:40:17.442Z,34.97
2019-04-11T20:42:44.795Z,34.50
2019-04-11T20:45:13.891Z,34.87
2019-04-11T20:47:42.786Z,34.43
2019-04-11T20:50:11.978Z,35.07
2019-04-11T20:52:40.872Z,35.10
2019-04-11T20:55:11.094Z,36.25
2019-04-11T20:57:41.023Z,34.53
2019-04-11T21:00:12.447Z,34.27
2019-04-11T21:02:41.351Z,33.87
2019-04-11T21:05:11.471Z,35.35
2019-04-11T21:07:40.361Z,36.07
2019-04-11T21:10:10.347Z,32.87
2019-04-11T21:12:39.282Z,33.80
2019-04-11T21:15:09.800Z,34.92
2019-04-11T21:17:38.691Z,35.60
2019-04-11T21:20:09.161Z,34.47
2019-04-11T21:22:38.012Z,33.87
2019-04-11T21:25:07.550Z,33.97
2019-04-11T21:27:36.407Z,34.87
2019-04-11T21:30:06.820Z,36.90
2019-04-11T21:32:35.626Z,34.17
2019-04-11T21:35:06.537Z,36.33
2019-04-11T21:37:36.737Z,34.53
2019-04-11T21:40:07.543Z,34.27
2019-04-11T21:42:36.807Z,35.33
2019-04-11T21:45:07.449Z,34.67
2019-04-11T21:47:37.196Z,35.37
2019-04-11T21:50:09.428Z,34.40
2019-04-11T21:52:43.444Z,34.63
2019-04-11T21:55:15.192Z,34.83
2019-04-11T21:57:41.635Z,33.20
2019-04-11T22:00:23.183Z,35.27
2019-04-11T22:02:54.503Z,33.83
2019-04-11T22:05:23.056Z,35.58
2019-04-11T22:07:51.945Z,36.07
2019-04-11T22:10:20.842Z,33.70
2019-04-11T22:12:49.830Z,34.27
2019-04-11T22:15:18.720Z,32.50
2019-04-11T22:17:47.614Z,34.57
2019-04-11T22:20:17.375Z,33.85
2019-04-11T22:22:46.314Z,33.87
2019-04-11T22:25:15.206Z,32.10
2019-04-11T22:27:44.201Z,32.90
2019-04-11T22:30:16.264Z,31.23
2019-04-11T22:32:46.693Z,31.57
2019-04-11T22:35:15.939Z,31.95
2019-04-11T22:37:44.784Z,32.73
2019-04-11T22:40:14.732Z,32.13
2019-04-11T22:42:43.589Z,32.37
2019-04-11T22:45:13.812Z,32.65
2019-04-11T22:47:42.805Z,32.43
2019-04-11T22:50:13.250Z,32.00
2019-04-11T22:52:42.805Z,31.73
2019-04-11T22:55:11.957Z,29.90
2019-04-11T22:57:43.585Z,31.47
2019-04-11T23:00:15.218Z,31.23
2019-04-11T23:02:47.430Z,31.63
2019-04-11T23:05:17.336Z,30.43
2019-04-11T23:07:48.346Z,30.73
2019-04-11T23:10:17.755Z,31.10
2019-04-11T23:12:46.670Z,29.83
2019-04-11T23:15:15.768Z,29.80
2019-04-11T23:17:44.965Z,29.40
2019-04-11T23:20:14.956Z,30.53
2019-04-11T23:22:44.074Z,30.70
2019-04-11T23:25:13.580Z,30.77
2019-04-11T23:27:42.476Z,31.10
2019-04-11T23:30:15.896Z,29.42
2019-04-11T23:32:44.864Z,29.47
2019-04-11T23:35:13.758Z,30.03
2019-04-11T23:37:54.525Z,31.30
2019-04-11T23:40:23.418Z,30.05
2019-04-11T23:42:52.619Z,30.60
2019-04-11T23:45:23.044Z,30.80
2019-04-11T23:47:54.098Z,30.70
2019-04-11T23:50:24.902Z,31.53
2019-04-11T23:52:57.045Z,30.90
2019-04-11T23:55:23.730Z,31.62
2019-04-11T23:57:52.627Z,31.37
